Terminal Aerodrome Forecast
Issued by NWS Detroit/Pontiac, MI

Home | Current Version | Previous Version | Text Only | Print | Product List | Glossary On
Versions: 1 2 3 4 5 6 7 8 9 10 11 12 13 14 15 16 17 18 19 20 21
000
FTUS43 KDTX 181723
TAFFNT
TAF
KFNT 181723Z 1818/1918 26010KT 5SM BR OVC007
     FM190300 24005KT 5SM BR BKN006
     FM190900 23005KT 2SM BR BKN004
     FM191500 22004KT 4SM BR BKN008=

USA.gov is the U.S. government's official web portal to all federal, state and local government web resources and services.